Time;durP1;ratioP1;P1;durP2;ratioP2;P2;SDS_P1;SDS_P2;PMS_P1;PMS_P2;Temp;Humidity;BMP_temperature;BMP_pressure;BME280_temperature;BME280_humidity;BME280_pressure;Samples;Min_cycle;Max_cycle;Signal;HPM_P1;HPM_P2
2022/01/11 00:00:35;;;;;;;18.42;16.55;;;;;;;3.80;72.55;100787.83;470234;110;930787;-70
2022/01/11 00:01:43;;;;;;;18.05;16.18;;;;;;;3.81;72.62;100785.94;468144;111;930539;-70
2022/01/11 00:02:45;;;;;;;18.21;16.48;;;;;;;3.80;72.67;100782.43;460757;114;922627;-72
2022/01/11 00:03:49;;;;;;;16.53;15.04;;;;;;;3.80;72.58;100787.83;468482;110;922576;-72
2022/01/11 00:04:52;;;;;;;15.88;14.41;;;;;;;3.81;72.56;100788.64;478493;110;923212;-72
2022/01/11 00:06:08;;;;;;;16.27;14.75;;;;;;;3.80;72.49;100784.28;475439;109;922640;-71
2022/01/11 00:07:07;;;;;;;16.82;15.03;;;;;;;3.74;72.40;100783.94;475785;109;930636;-71
2022/01/11 00:08:11;;;;;;;17.48;15.79;;;;;;;3.72;72.57;100782.40;474350;109;923056;-72
2022/01/11 00:09:39;;;;;;;17.52;15.70;;;;;;;3.68;72.50;100784.59;478501;109;922532;-71
2022/01/11 00:10:48;;;;;;;17.52;15.82;;;;;;;3.63;72.53;100788.80;480003;109;922627;-73
2022/01/11 00:11:45;;;;;;;18.43;16.66;;;;;;;3.59;72.77;100788.26;472135;109;922671;-71
2022/01/11 00:12:48;;;;;;;17.30;15.55;;;;;;;3.58;72.87;100794.69;478803;109;922878;-71
2022/01/11 00:13:52;;;;;;;17.31;15.59;;;;;;;3.59;72.95;100795.50;479158;109;922582;-72
2022/01/11 00:14:55;;;;;;;18.20;16.19;;;;;;;3.56;72.87;100793.15;479035;109;922569;-73
2022/01/11 00:15:58;;;;;;;17.82;16.19;;;;;;;3.53;72.95;100794.30;474966;109;922577;-73
2022/01/11 00:17:02;;;;;;;16.61;14.98;;;;;;;3.49;72.92;100794.80;476502;109;922883;-73
2022/01/11 00:18:05;;;;;;;20.01;17.73;;;;;;;3.46;73.08;100790.60;474350;110;930646;-72
2022/01/11 00:19:09;;;;;;;19.73;16.85;;;;;;;3.44;73.21;100789.06;474884;110;930905;-72
2022/01/11 00:20:15;;;;;;;18.14;16.14;;;;;;;3.45;73.26;100791.61;464316;112;923356;-74
2022/01/11 00:21:21;;;;;;;19.16;17.12;;;;;;;3.44;73.33;100789.06;473294;109;930584;-74
2022/01/11 00:22:31;;;;;;;19.21;16.78;;;;;;;3.41;73.28;100787.55;455497;114;923131;-72
2022/01/11 00:24:36;;;;;;;20.69;16.65;;;;;;;3.38;73.52;100789.72;472031;108;922734;-72
2022/01/11 00:25:43;;;;;;;17.92;15.56;;;;;;;3.39;73.71;100794.10;479256;108;922386;-71
2022/01/11 00:26:46;;;;;;;18.02;15.58;;;;;;;3.38;73.82;100793.25;478560;108;923408;-72
2022/01/11 00:27:50;;;;;;;19.08;14.38;;;;;;;3.36;73.86;100784.51;472142;109;922570;-71
2022/01/11 00:28:53;;;;;;;18.29;15.31;;;;;;;3.36;74.00;100793.41;462441;111;923234;-71
2022/01/11 00:30:06;;;;;;;17.51;15.37;;;;;;;3.36;74.08;100790.72;466591;111;930593;-72
2022/01/11 00:31:06;;;;;;;19.91;16.14;;;;;;;3.34;74.08;100798.14;474882;109;923030;-72
2022/01/11 00:32:14;;;;;;;16.37;14.71;;;;;;;3.31;74.14;100798.45;480565;109;922609;-71
2022/01/11 00:33:21;;;;;;;18.89;15.24;;;;;;;3.31;74.34;100789.52;481227;110;923026;-73
2022/01/11 00:34:23;;;;;;;17.03;14.87;;;;;;;3.30;74.47;100793.24;480067;109;922591;-72
2022/01/11 00:35:39;;;;;;;17.18;15.43;;;;;;;3.30;74.62;100796.78;479034;108;922557;-73
2022/01/11 00:36:42;;;;;;;17.43;15.56;;;;;;;3.32;74.67;100793.91;478034;109;922996;-71
2022/01/11 00:37:39;;;;;;;16.77;14.79;;;;;;;3.34;74.70;100803.53;478846;110;922676;-72
2022/01/11 00:38:43;;;;;;;17.62;15.59;;;;;;;3.35;74.75;100801.68;468678;111;923039;-74
2022/01/11 00:39:49;;;;;;;19.54;15.96;;;;;;;3.36;74.64;100798.80;472701;109;930606;-71
2022/01/11 00:40:55;;;;;;;17.35;15.23;;;;;;;3.35;74.70;100797.14;477018;109;922584;-73
2022/01/11 00:41:59;;;;;;;17.50;15.39;;;;;;;3.35;74.73;100797.14;473268;110;922772;-73
2022/01/11 00:43:06;;;;;;;17.93;16.02;;;;;;;3.37;74.79;100796.95;471023;110;922579;-73
2022/01/11 00:44:09;;;;;;;17.89;15.39;;;;;;;3.39;74.84;100802.19;474735;110;922648;-72
2022/01/11 00:45:14;;;;;;;16.59;14.74;;;;;;;3.40;74.81;100799.34;471651;111;922949;-73
2022/01/11 00:46:17;;;;;;;14.33;12.92;;;;;;;3.38;74.67;100797.80;470377;111;922538;-73
2022/01/11 00:47:21;;;;;;;17.46;14.13;;;;;;;3.35;74.69;100798.98;474347;110;922464;-72
2022/01/11 00:48:25;;;;;;;21.95;16.33;;;;;;;3.32;74.64;100796.59;475228;109;923374;-73
2022/01/11 00:49:28;;;;;;;17.67;14.59;;;;;;;3.27;74.67;100796.25;477652;109;922494;-72
2022/01/11 00:50:36;;;;;;;18.16;15.31;;;;;;;3.27;74.88;100801.63;477978;108;923617;-72
2022/01/11 00:51:40;;;;;;;18.87;15.52;;;;;;;3.27;74.99;100796.25;477389;110;922700;-72
2022/01/11 00:52:43;;;;;;;18.40;15.04;;;;;;;3.28;74.94;100800.63;477469;110;922629;-71
2022/01/11 00:53:47;;;;;;;17.01;14.01;;;;;;;3.27;74.92;100796.25;459245;112;930635;-72
2022/01/11 00:54:50;;;;;;;15.91;14.18;;;;;;;3.26;74.80;100808.02;450780;114;922824;-72
2022/01/11 00:55:53;;;;;;;17.09;15.01;;;;;;;3.24;74.90;100800.13;449395;114;922756;-72
2022/01/11 00:56:56;;;;;;;18.74;14.99;;;;;;;3.24;74.97;100799.28;465891;112;922968;-71
2022/01/11 00:58:04;;;;;;;20.16;16.76;;;;;;;3.25;74.98;100798.28;453484;114;922633;-72
2022/01/11 00:59:07;;;;;;;16.25;14.37;;;;;;;3.28;75.02;100806.02;459495;112;930733;-71
2022/01/11 01:00:11;;;;;;;17.31;14.75;;;;;;;3.31;75.06;100802.98;454088;114;922844;-72
2022/01/11 01:01:15;;;;;;;22.14;16.21;;;;;;;3.33;74.99;100795.59;463783;112;922576;-73
2022/01/11 01:02:18;;;;;;;19.66;15.30;;;;;;;3.31;74.80;100801.14;465639;111;923201;-72
2022/01/11 01:03:22;;;;;;;18.48;15.58;;;;;;;3.32;74.87;100802.84;458635;112;922818;-72
2022/01/11 01:04:26;;;;;;;21.53;15.05;;;;;;;3.34;74.98;100802.69;460954;111;930426;-72
2022/01/11 01:05:29;;;;;;;20.03;16.65;;;;;;;3.35;74.88;100796.29;458772;115;922480;-73
2022/01/11 01:06:33;;;;;;;20.81;17.05;;;;;;;3.37;74.96;100802.34;454962;114;930640;-72
2022/01/11 01:07:37;;;;;;;18.49;15.05;;;;;;;3.39;74.90;100800.34;457424;115;922609;-72
2022/01/11 01:08:41;;;;;;;16.48;13.95;;;;;;;3.40;74.81;100795.80;459644;112;922626;-72
2022/01/11 01:09:57;;;;;;;17.57;14.36;;;;;;;3.40;74.71;100804.73;459680;113;923121;-74
2022/01/11 01:10:50;;;;;;;21.26;16.09;;;;;;;3.39;74.56;100792.25;452270;114;922682;-73
2022/01/11 01:11:54;;;;;;;17.28;15.37;;;;;;;3.35;74.49;100798.98;457351;114;922671;-72
2022/01/11 01:12:58;;;;;;;18.39;15.23;;;;;;;3.32;74.58;100793.91;463895;112;922721;-72
2022/01/11 01:14:02;;;;;;;18.37;15.47;;;;;;;3.31;74.61;100793.05;461446;112;922661;-71
2022/01/11 01:15:06;;;;;;;16.77;14.83;;;;;;;3.29;74.69;100791.55;465784;112;922667;-72
2022/01/11 01:16:10;;;;;;;17.58;15.44;;;;;;;3.29;74.69;100796.94;456541;112;925416;-73
2022/01/11 01:17:21;;;;;;;16.00;14.24;;;;;;;3.28;74.72;100795.25;458825;114;922666;-72
2022/01/11 01:18:27;;;;;;;15.54;13.89;;;;;;;3.28;74.70;100797.94;457685;113;922586;-73
2022/01/11 01:19:31;;;;;;;17.40;15.66;;;;;;;3.27;74.75;100793.55;468514;111;922613;-72
2022/01/11 01:20:34;;;;;;;16.99;15.26;;;;;;;3.27;74.81;100796.25;466433;112;922885;-73
2022/01/11 01:21:39;;;;;;;15.73;13.78;;;;;;;3.25;74.77;100796.40;454271;112;930326;-73
2022/01/11 01:22:43;;;;;;;16.85;14.93;;;;;;;3.25;74.78;100788.31;456456;113;930515;-73
2022/01/11 01:23:46;;;;;;;15.77;14.24;;;;;;;3.28;74.81;100789.86;466426;111;922573;-72
2022/01/11 01:24:50;;;;;;;16.95;15.21;;;;;;;3.29;74.85;100786.16;462037;112;930237;-73
2022/01/11 01:25:53;;;;;;;16.54;14.44;;;;;;;3.31;74.83;100792.20;461334;112;922636;-71
2022/01/11 01:26:57;;;;;;;15.31;13.85;;;;;;;3.33;74.79;100792.91;465581;112;923027;-72
2022/01/11 01:28:00;;;;;;;15.23;13.72;;;;;;;3.34;74.64;100794.59;456117;114;930314;-71
2022/01/11 01:29:04;;;;;;;15.47;14.03;;;;;;;3.34;74.66;100786.52;457565;113;922667;-71
2022/01/11 01:30:09;;;;;;;13.18;11.93;;;;;;;3.35;74.68;100790.91;456865;112;930269;-74
2022/01/11 01:31:13;;;;;;;15.29;13.81;;;;;;;3.35;74.46;100788.20;463811;111;922652;-73
2022/01/11 01:32:16;;;;;;;14.76;13.26;;;;;;;3.34;74.49;100791.91;468034;112;922521;-72
2022/01/11 01:33:20;;;;;;;14.50;13.17;;;;;;;3.34;74.48;100784.66;465902;112;922646;-72
2022/01/11 01:34:24;;;;;;;14.11;12.79;;;;;;;3.34;74.50;100784.66;465704;111;922975;-73
2022/01/11 01:35:33;;;;;;;15.61;14.11;;;;;;;3.34;74.52;100781.97;461983;111;930379;-72
2022/01/11 01:36:34;;;;;;;14.78;13.45;;;;;;;3.36;74.48;100773.73;455729;114;922488;-72
2022/01/11 01:37:37;;;;;;;13.85;12.67;;;;;;;3.37;74.51;100778.09;456400;114;922545;-71
2022/01/11 01:38:41;;;;;;;12.81;11.59;;;;;;;3.40;74.47;100782.32;455136;115;922574;-73
2022/01/11 01:39:45;;;;;;;13.32;12.13;;;;;;;3.39;74.20;100776.08;471034;110;922588;-73
2022/01/11 01:40:49;;;;;;;13.25;12.06;;;;;;;3.34;74.05;100779.27;465379;111;923004;-73
2022/01/11 01:41:52;;;;;;;13.90;12.61;;;;;;;3.29;74.07;100776.23;464952;111;922612;-73
2022/01/11 01:42:56;;;;;;;13.08;11.91;;;;;;;3.28;74.31;100781.77;465861;108;922619;-73
2022/01/11 01:44:01;;;;;;;14.13;12.69;;;;;;;3.29;74.45;100778.92;470187;110;930319;-72
2022/01/11 01:45:05;;;;;;;12.96;11.74;;;;;;;3.31;74.44;100779.58;469391;110;930351;-72
2022/01/11 01:46:09;;;;;;;12.41;11.28;;;;;;;3.32;74.37;100785.82;475306;108;922753;-72
2022/01/11 01:47:12;;;;;;;13.62;12.33;;;;;;;3.34;74.31;100784.66;472252;110;922692;-72
2022/01/11 01:48:16;;;;;;;12.68;11.48;;;;;;;3.35;74.31;100775.58;476142;110;930239;-73
2022/01/11 01:49:22;;;;;;;13.25;12.01;;;;;;;3.36;74.30;100777.23;476632;110;922630;-71
2022/01/11 01:50:27;;;;;;;12.64;11.39;;;;;;;3.37;74.24;100780.78;466906;111;922484;-72
2022/01/11 01:51:30;;;;;;;12.71;11.52;;;;;;;3.36;74.08;100774.55;468156;111;923410;-72
2022/01/11 01:52:35;;;;;;;12.15;10.95;;;;;;;3.33;73.99;100768.65;479362;109;922684;-72
2022/01/11 01:53:41;;;;;;;12.92;11.59;;;;;;;3.29;74.06;100780.77;471575;110;922494;-71
2022/01/11 01:54:45;;;;;;;13.12;12.02;;;;;;;3.28;74.12;100770.99;472337;110;922558;-71
2022/01/11 01:55:49;;;;;;;12.25;11.07;;;;;;;3.27;74.20;100774.69;475460;109;922590;-72
2022/01/11 01:56:52;;;;;;;12.37;11.20;;;;;;;;;;475936;110;922528;-73
2022/01/11 01:57:56;;;;;;;12.86;11.63;;;;;;;3.26;74.27;100770.30;476558;109;922731;-72
2022/01/11 01:58:59;;;;;;;12.55;11.46;;;;;;;3.25;74.25;100774.03;473435;110;923046;-72
2022/01/11 02:00:11;;;;;;;12.59;11.45;;;;;;;3.24;74.22;100770.48;461715;112;923021;-72
2022/01/11 02:01:13;;;;;;;12.20;11.10;;;;;;;3.23;74.24;100762.56;451686;114;923037;-70
2022/01/11 02:02:18;;;;;;;12.85;11.64;;;;;;;3.22;74.35;100767.09;471335;111;922675;-71
2022/01/11 02:03:26;;;;;;;12.04;11.02;;;;;;;3.21;74.24;100765.41;468179;111;922532;-72
2022/01/11 02:04:28;;;;;;;12.18;11.08;;;;;;;3.19;74.22;100771.98;468428;112;922530;-72
2022/01/11 02:05:32;;;;;;;12.15;11.04;;;;;;;3.19;74.06;100766.59;455279;114;923076;-72
2022/01/11 02:06:37;;;;;;;12.72;11.65;;;;;;;3.20;74.34;100776.34;463714;112;923016;-69
2022/01/11 02:07:40;;;;;;;13.36;12.15;;;;;;;3.17;74.19;100766.75;456193;114;923142;-72
2022/01/11 02:08:48;;;;;;;12.71;11.52;;;;;;;3.12;74.05;100771.78;457115;115;922587;-71
2022/01/11 02:12:58;;;;;;;11.76;10.71;;;;;;;3.01;74.18;100780.15;473112;110;922574;-72
2022/01/11 02:14:02;;;;;;;12.03;10.83;;;;;;;2.87;74.51;100776.19;471697;109;922381;-71
2022/01/11 02:15:06;;;;;;;11.01;10.01;;;;;;;2.81;74.86;100767.94;478573;109;922648;-72
2022/01/11 02:16:09;;;;;;;12.98;11.78;;;;;;;2.79;74.98;100776.17;472970;109;930682;-71
2022/01/11 02:17:13;;;;;;;11.88;10.73;;;;;;;2.79;75.09;100775.32;474412;109;922634;-71
2022/01/11 02:18:25;;;;;;;11.53;10.50;;;;;;;2.81;75.25;100776.83;478011;108;930267;-73
2022/01/11 02:19:25;;;;;;;11.92;10.79;;;;;;;2.85;75.32;100777.38;458695;111;930127;-71
2022/01/11 02:20:29;;;;;;;11.51;10.54;;;;;;;2.88;75.32;100767.12;455059;115;922692;-71
2022/01/11 02:21:32;;;;;;;11.12;10.23;;;;;;;2.91;75.25;100772.20;453747;115;930254;-71
2022/01/11 02:22:35;;;;;;;11.37;10.37;;;;;;;2.93;75.17;100763.94;456836;113;923106;-72
2022/01/11 02:23:40;;;;;;;11.51;10.43;;;;;;;2.95;75.14;100772.70;457429;112;923426;-72
2022/01/11 02:24:43;;;;;;;11.33;10.29;;;;;;;2.98;75.15;100771.55;458425;112;930386;-71
2022/01/11 02:25:48;;;;;;;9.85;9.03;;;;;;;3.01;75.14;100772.06;455716;112;922570;-72
2022/01/11 02:26:51;;;;;;;11.58;10.15;;;;;;;3.04;75.16;100770.88;461407;112;922866;-71
2022/01/11 02:27:55;;;;;;;11.36;10.31;;;;;;;3.05;75.07;100773.42;461164;112;923194;-70
2022/01/11 02:28:59;;;;;;;11.61;10.53;;;;;;;3.10;75.03;100770.23;462209;112;930109;-69
2022/01/11 02:30:04;;;;;;;11.61;10.54;;;;;;;3.12;74.98;100765.55;459347;113;930367;-73
2022/01/11 02:31:12;;;;;;;11.13;10.13;;;;;;;3.14;74.90;100764.36;457788;112;926329;-72
2022/01/11 02:32:16;;;;;;;12.16;11.02;;;;;;;3.16;74.82;100764.20;452741;114;923881;-72
2022/01/11 02:33:35;;;;;;;12.45;11.28;;;;;;;3.17;74.76;100768.59;452713;114;922715;-71
2022/01/11 02:34:40;;;;;;;10.58;9.59;;;;;;;3.17;74.61;100768.59;453563;114;922960;-70
2022/01/11 02:35:51;;;;;;;11.53;10.49;;;;;;;3.16;74.59;100766.90;473872;109;923045;-71
2022/01/11 02:36:55;;;;;;;11.35;10.35;;;;;;;3.13;74.62;100770.78;470909;110;922980;-71
2022/01/11 02:38:03;;;;;;;11.62;10.52;;;;;;;3.16;74.69;100772.29;468492;110;922475;-72
2022/01/11 02:39:06;;;;;;;11.79;10.76;;;;;;;3.17;74.77;100769.44;481009;108;923277;-72
2022/01/11 02:40:12;;;;;;;12.48;11.28;;;;;;;3.18;74.65;100779.22;463126;111;931283;-72
2022/01/11 02:41:16;;;;;;;12.07;10.98;;;;;;;3.19;74.46;100771.98;466921;109;922840;-72
2022/01/11 02:42:19;;;;;;;11.97;10.82;;;;;;;3.16;74.38;100774.98;474290;110;923250;-73
2022/01/11 02:43:23;;;;;;;11.88;10.78;;;;;;;3.12;74.37;100770.94;471810;111;922766;-72
2022/01/11 02:44:26;;;;;;;12.36;11.17;;;;;;;3.13;74.50;100773.47;472005;110;930325;-73
2022/01/11 02:45:30;;;;;;;12.68;11.50;;;;;;;3.14;74.57;100775.14;462977;111;930402;-73
2022/01/11 02:46:34;;;;;;;12.15;10.91;;;;;;;3.17;74.63;100776.67;468594;111;930369;-73
2022/01/11 02:47:38;;;;;;;13.14;11.77;;;;;;;3.20;74.68;100770.95;462307;112;922824;-70
2022/01/11 02:48:41;;;;;;;12.02;10.94;;;;;;;3.23;74.56;100778.72;461848;112;930444;-71
2022/01/11 02:49:44;;;;;;;11.64;10.64;;;;;;;3.24;74.42;100772.33;462316;111;922656;-72
2022/01/11 02:50:50;;;;;;;11.59;10.48;;;;;;;3.23;74.38;100779.57;465122;111;922680;-71
2022/01/11 02:51:54;;;;;;;12.16;11.06;;;;;;;3.26;74.47;100778.38;462476;112;922809;-70
2022/01/11 02:52:58;;;;;;;12.14;10.94;;;;;;;3.27;74.38;100777.38;465800;112;923029;-71
2022/01/11 02:54:02;;;;;;;12.07;10.89;;;;;;;3.27;74.33;100783.62;459894;112;922534;-72
2022/01/11 02:55:11;;;;;;;12.10;11.09;;;;;;;3.28;74.26;100785.31;452068;113;930619;-72
2022/01/11 02:56:17;;;;;;;11.36;10.36;;;;;;;3.27;74.14;100780.08;451438;114;923230;-72
2022/01/11 02:57:21;;;;;;;11.53;10.39;;;;;;;3.26;74.17;100787.31;456286;112;922545;-72
2022/01/11 02:58:26;;;;;;;13.28;11.28;;;;;;;3.27;74.11;100782.77;457593;113;922830;-70
2022/01/11 02:59:30;;;;;;;18.71;9.87;;;;;;;3.25;74.13;100782.92;464322;112;922643;-71
2022/01/11 03:00:34;;;;;;;12.72;11.45;;;;;;;3.27;74.15;100786.31;474310;109;930459;-72
2022/01/11 03:01:38;;;;;;;11.21;10.11;;;;;;;3.27;74.07;100783.62;473151;111;922702;-72
2022/01/11 03:02:43;;;;;;;12.14;11.05;;;;;;;3.26;74.01;100779.23;458528;112;922764;-72
2022/01/11 03:03:47;;;;;;;10.68;9.72;;;;;;;3.28;74.10;100784.47;460754;111;930464;-72
2022/01/11 03:04:51;;;;;;;11.10;10.07;;;;;;;3.30;74.02;100779.77;474032;109;930492;-72
2022/01/11 03:05:57;;;;;;;12.09;10.90;;;;;;;3.29;73.96;100791.55;474922;110;922575;-75
2022/01/11 03:07:01;;;;;;;11.05;9.93;;;;;;;3.27;73.91;100789.01;473938;109;922662;-70
2022/01/11 03:08:06;;;;;;;11.52;10.44;;;;;;;3.24;73.86;100785.81;472737;109;922675;-71
2022/01/11 03:09:11;;;;;;;12.67;11.41;;;;;;;3.22;73.90;100787.80;464887;110;922696;-71
2022/01/11 03:10:32;;;;;;;11.25;10.19;;;;;;;3.20;73.99;100787.96;477613;109;930362;-72
2022/01/11 03:11:36;;;;;;;11.75;10.52;;;;;;;3.23;74.05;100792.20;462025;111;922824;-73
2022/01/11 03:12:43;;;;;;;12.23;11.09;;;;;;;3.21;73.85;100791.50;449589;114;930149;-72
2022/01/11 03:13:46;;;;;;;11.68;10.59;;;;;;;3.17;73.88;100795.53;451097;115;922653;-73
2022/01/11 03:14:49;;;;;;;11.25;10.25;;;;;;;3.14;74.09;100793.18;458140;113;922898;-72
2022/01/11 03:15:53;;;;;;;11.28;10.19;;;;;;;3.12;74.16;100793.33;462574;112;922848;-75
2022/01/11 03:16:57;;;;;;;11.11;10.09;;;;;;;3.12;74.29;100806.80;458842;115;930042;-71
2022/01/11 03:18:01;;;;;;;10.90;9.80;;;;;;;3.15;74.40;100800.23;467602;111;930196;-71
2022/01/11 03:19:04;;;;;;;11.09;10.08;;;;;;;3.17;74.40;100799.08;460300;113;930553;-71
2022/01/11 03:20:08;;;;;;;11.36;10.24;;;;;;;3.19;74.27;100805.16;457258;113;930588;-72
2022/01/11 03:21:12;;;;;;;12.25;11.16;;;;;;;3.19;74.13;100797.08;454636;113;922474;-72
2022/01/11 03:22:16;;;;;;;12.16;10.84;;;;;;;3.17;73.97;100793.69;459832;112;922640;-72
2022/01/11 03:23:20;;;;;;;9.89;8.98;;;;;;;3.14;73.98;100804.77;468460;111;930145;-69
2022/01/11 03:24:25;;;;;;;12.48;11.14;;;;;;;3.11;74.05;100798.88;456664;114;922931;-71
2022/01/11 03:25:28;;;;;;;10.68;9.66;;;;;;;3.10;74.08;100803.41;476498;109;922728;-72
2022/01/11 03:26:32;;;;;;;11.00;9.94;;;;;;;3.08;74.11;100804.59;469146;111;922868;-71
2022/01/11 03:27:35;;;;;;;11.48;10.26;;;;;;;3.07;74.21;100803.75;460335;112;922991;-69
2022/01/11 03:28:39;;;;;;;10.99;9.79;;;;;;;3.09;74.35;100811.67;465466;111;923301;-72
2022/01/11 03:29:42;;;;;;;12.08;10.93;;;;;;;3.10;74.36;100810.64;469362;110;922802;-72
2022/01/11 03:30:47;;;;;;;11.90;10.44;;;;;;;3.13;74.26;100807.65;466833;110;923091;-72
2022/01/11 03:31:51;;;;;;;11.52;10.29;;;;;;;3.13;74.15;100808.50;462182;111;930466;-72
2022/01/11 03:32:54;;;;;;;11.06;9.95;;;;;;;3.12;74.16;100816.73;464247;111;922571;-71
2022/01/11 03:34:03;;;;;;;12.00;10.86;;;;;;;3.10;74.09;100819.58;463518;111;922917;-71
2022/01/11 03:35:07;;;;;;;13.01;11.01;;;;;;;3.09;74.19;100820.58;461222;112;922823;-72
2022/01/11 03:36:12;;;;;;;10.81;9.71;;;;;;;;;;450822;114;923568;-71
2022/01/11 03:37:17;;;;;;;12.01;10.79;;;;;;;3.08;74.30;100826.14;454510;113;922724;-72
2022/01/11 03:38:22;;;;;;;10.83;9.70;;;;;;;3.09;74.35;100827.84;448200;115;923700;-72
2022/01/11 03:39:28;;;;;;;11.38;10.30;;;;;;;3.09;74.28;100825.15;451931;112;922618;-72
2022/01/11 03:40:32;;;;;;;11.57;10.42;;;;;;;3.07;74.15;100822.61;460863;113;922683;-71
2022/01/11 03:41:37;;;;;;;12.58;11.36;;;;;;;3.07;74.27;100830.69;470350;110;930316;-71
2022/01/11 03:42:41;;;;;;;12.51;11.08;;;;;;;3.08;74.43;100828.84;476989;108;922669;-70
2022/01/11 03:43:45;;;;;;;12.35;11.06;;;;;;;3.12;74.50;100827.50;479196;109;923093;-72
2022/01/11 03:44:50;;;;;;;13.64;12.21;;;;;;;3.15;74.42;100829.86;481311;108;922785;-71
2022/01/11 03:45:54;;;;;;;11.73;10.55;;;;;;;3.16;74.29;100824.33;478554;107;922573;-72
2022/01/11 03:46:59;;;;;;;14.17;11.76;;;;;;;3.16;74.27;100828.86;478500;110;922594;-71
2022/01/11 03:48:04;;;;;;;14.27;12.86;;;;;;;3.14;74.20;100830.89;471171;110;922878;-72
2022/01/11 03:49:08;;;;;;;12.06;10.81;;;;;;;3.11;74.19;100831.20;459091;113;923786;-71
2022/01/11 03:50:12;;;;;;;12.85;11.04;;;;;;;3.10;74.26;100835.74;459110;112;922651;-70
2022/01/11 03:51:16;;;;;;;13.43;11.28;;;;;;;3.10;74.28;100834.89;469443;111;922756;-71
2022/01/11 03:52:25;;;;;;;12.81;11.58;;;;;;;3.10;74.38;100834.89;469606;110;922604;-72
2022/01/11 03:53:33;;;;;;;12.75;11.45;;;;;;;3.11;74.40;100828.50;471086;110;922643;-71
2022/01/11 03:54:50;;;;;;;12.26;10.86;;;;;;;3.11;74.40;100833.89;466553;110;922672;-73
2022/01/11 03:57:01;;;;;;;11.90;10.71;;;;;;;3.10;74.42;100834.89;469784;111;923033;-72
2022/01/11 03:58:06;;;;;;;13.17;11.92;;;;;;;3.08;74.43;100835.08;472959;108;922898;-72
2022/01/11 03:59:10;;;;;;;12.46;11.21;;;;;;;3.04;74.71;100833.69;465109;112;923165;-71
2022/01/11 04:00:19;;;;;;;12.94;11.64;;;;;;;3.00;74.50;100831.48;457435;112;922723;-70
2022/01/11 04:01:23;;;;;;;14.21;12.83;;;;;;;2.97;74.59;100831.81;458507;114;922860;-72
2022/01/11 04:02:27;;;;;;;14.00;12.67;;;;;;;2.96;74.74;100828.27;458599;112;922569;-70
2022/01/11 04:03:31;;;;;;;14.05;12.49;;;;;;;2.96;74.78;100832.80;462112;112;922653;-72
2022/01/11 04:04:35;;;;;;;14.01;12.61;;;;;;;2.97;74.85;100829.97;467870;111;922772;-69
2022/01/11 04:05:41;;;;;;;14.83;12.99;;;;;;;2.98;74.98;100828.94;460185;112;930351;-71
2022/01/11 04:06:43;;;;;;;14.03;12.73;;;;;;;3.01;75.02;100825.94;452643;113;930528;-72
2022/01/11 04:07:47;;;;;;;13.33;12.03;;;;;;;3.02;74.88;100830.33;453421;115;922667;-72
2022/01/11 04:08:50;;;;;;;14.13;12.52;;;;;;;3.02;74.94;100830.33;457424;114;922716;-70
2022/01/11 04:09:56;;;;;;;14.46;13.06;;;;;;;3.06;74.94;100822.75;468280;112;930550;-72
2022/01/11 04:10:59;;;;;;;13.99;12.43;;;;;;;3.08;74.91;100823.45;453529;115;930563;-71
2022/01/11 04:12:03;;;;;;;14.52;12.63;;;;;;;3.09;74.96;100833.23;465588;111;922760;-70
2022/01/11 04:13:06;;;;;;;14.81;13.43;;;;;;;3.12;74.98;100830.20;456786;115;922682;-71
2022/01/11 04:14:10;;;;;;;15.14;13.69;;;;;;;3.11;74.92;100823.12;461971;112;923257;-72
2022/01/11 04:15:13;;;;;;;17.82;14.91;;;;;;;3.12;74.93;100832.89;455030;114;922566;-69
2022/01/11 04:16:17;;;;;;;16.09;14.44;;;;;;;3.13;75.00;100831.89;464023;111;922822;-72
2022/01/11 04:17:20;;;;;;;14.58;13.12;;;;;;;3.13;74.97;100837.28;458881;113;930455;-72
2022/01/11 04:18:24;;;;;;;17.14;15.38;;;;;;;3.12;75.02;100828.36;454591;115;930736;-70
2022/01/11 04:19:28;;;;;;;16.77;14.60;;;;;;;3.12;75.05;100827.50;458470;112;922765;-71
2022/01/11 04:20:31;;;;;;;16.66;14.98;;;;;;;3.15;75.12;100827.17;461818;111;931220;-71
2022/01/11 04:21:34;;;;;;;15.11;13.75;;;;;;;3.16;75.16;100828.86;468756;111;923025;-71
2022/01/11 04:22:38;;;;;;;16.19;14.56;;;;;;;3.17;75.59;100834.10;467547;111;930416;-71
2022/01/11 04:23:42;;;;;;;17.88;15.76;;;;;;;3.16;75.28;100836.95;462198;111;922583;-72
2022/01/11 04:24:46;;;;;;;17.47;15.69;;;;;;;3.12;75.30;100836.44;451977;115;922705;-72
2022/01/11 04:25:50;;;;;;;17.93;15.99;;;;;;;3.10;75.26;100835.74;445428;116;922743;-71
2022/01/11 04:26:53;;;;;;;16.29;14.74;;;;;;;3.07;75.71;100835.23;452158;115;922821;-72
2022/01/11 04:27:57;;;;;;;15.48;14.08;;;;;;;3.02;75.72;100838.41;450273;115;922648;-72
2022/01/11 04:29:00;;;;;;;17.94;16.14;;;;;;;3.02;75.84;100837.56;461119;112;930017;-72
2022/01/11 04:30:05;;;;;;;17.15;15.55;;;;;;;3.00;75.97;100828.78;456824;113;930654;-71
2022/01/11 04:31:08;;;;;;;17.25;15.28;;;;;;;3.02;76.02;100834.87;451560;115;930791;-71
2022/01/11 04:32:11;;;;;;;16.75;15.13;;;;;;;3.05;76.08;100834.53;457482;115;922511;-72
2022/01/11 04:33:15;;;;;;;15.41;13.96;;;;;;;3.08;76.20;100839.62;443742;117;930622;-72
2022/01/11 04:34:19;;;;;;;15.91;14.45;;;;;;;3.10;76.15;100837.59;458198;113;930784;-72
2022/01/11 04:35:22;;;;;;;15.88;14.45;;;;;;;3.10;76.13;100841.13;465270;110;922424;-71
2022/01/11 04:36:30;;;;;;;15.26;13.73;;;;;;;3.09;76.15;100839.44;468653;110;930857;-72
2022/01/11 04:37:33;;;;;;;15.69;14.29;;;;;;;3.09;76.22;100838.62;474431;109;922852;-70
2022/01/11 04:38:36;;;;;;;16.52;14.91;;;;;;;3.09;76.25;100835.92;469900;110;923194;-71
2022/01/11 04:39:41;;;;;;;16.24;14.61;;;;;;;3.08;76.26;100839.62;470540;110;922609;-71
2022/01/11 04:40:44;;;;;;;15.83;14.36;;;;;;;3.07;76.33;100846.00;477549;110;922767;-72
2022/01/11 04:41:48;;;;;;;15.35;13.79;;;;;;;3.08;76.40;100845.00;475598;110;930416;-71
2022/01/11 04:42:52;;;;;;;14.22;12.97;;;;;;;3.07;76.32;100840.62;475917;110;923362;-72
2022/01/11 04:43:56;;;;;;;15.47;13.94;;;;;;;3.05;76.37;100840.77;462229;112;922495;-70
2022/01/11 04:45:00;;;;;;;14.18;12.95;;;;;;;3.01;76.31;100847.48;456359;114;923061;-73
2022/01/11 04:46:04;;;;;;;14.56;13.16;;;;;;;2.99;76.47;100851.33;461481;112;930381;-71
2022/01/11 04:47:07;;;;;;;14.10;12.84;;;;;;;2.98;76.55;100847.79;468456;110;923289;-70
2022/01/11 04:48:11;;;;;;;13.53;12.40;;;;;;;2.98;76.71;100858.56;466818;111;930262;-71
2022/01/11 04:49:14;;;;;;;14.95;13.58;;;;;;;2.99;76.71;100854.88;466915;110;930558;-71
2022/01/11 04:50:18;;;;;;;14.59;13.21;;;;;;;3.00;76.84;100856.56;468879;111;922747;-71
2022/01/11 04:51:21;;;;;;;15.94;14.38;;;;;;;3.01;76.86;100854.72;463108;110;930384;-71
2022/01/11 04:52:25;;;;;;;14.33;12.71;;;;;;;3.01;76.85;100854.72;468046;111;922956;-69
2022/01/11 04:53:28;;;;;;;13.58;12.41;;;;;;;3.01;76.95;100852.88;462042;110;922821;-72
2022/01/11 04:54:32;;;;;;;14.56;13.29;;;;;;;3.04;77.03;100849.84;466199;109;930377;-71
2022/01/11 04:55:36;;;;;;;12.51;11.39;;;;;;;3.05;77.12;100856.08;469342;110;922830;-70
2022/01/11 04:56:40;;;;;;;14.38;13.08;;;;;;;3.05;77.23;100856.92;463113;112;923488;-71
2022/01/11 04:57:44;;;;;;;15.11;13.79;;;;;;;3.08;77.27;100850.39;465489;113;930415;-71
2022/01/11 04:58:48;;;;;;;14.09;12.89;;;;;;;3.09;77.20;100852.91;454283;112;923007;-73
2022/01/11 04:59:52;;;;;;;13.88;12.52;;;;;;;3.10;77.11;100851.06;449237;115;930301;-72